sensor_id;sensor_type;location;lat;lon;timestamp;temperature;humidity
22787;DHT22;11560;52.982;6.662;2022-07-24T00:02:36;17.10;83.10
22787;DHT22;11560;52.982;6.662;2022-07-24T00:05:23;16.90;83.10
22787;DHT22;11560;52.982;6.662;2022-07-24T00:08:08;16.80;83.10
22787;DHT22;11560;52.982;6.662;2022-07-24T00:10:54;16.90;83.20
22787;DHT22;11560;52.982;6.662;2022-07-24T00:13:39;16.90;83.30
22787;DHT22;11560;52.982;6.662;2022-07-24T00:16:25;16.80;83.30
22787;DHT22;11560;52.982;6.662;2022-07-24T00:19:11;17.00;83.70
22787;DHT22;11560;52.982;6.662;2022-07-24T00:21:56;16.70;83.50
22787;DHT22;11560;52.982;6.662;2022-07-24T00:24:42;16.90;83.80
22787;DHT22;11560;52.982;6.662;2022-07-24T00:27:31;16.80;83.80
22787;DHT22;11560;52.982;6.662;2022-07-24T00:30:16;16.80;84.00
22787;DHT22;11560;52.982;6.662;2022-07-24T00:33:01;16.90;84.10
22787;DHT22;11560;52.982;6.662;2022-07-24T00:35:47;16.90;84.20
22787;DHT22;11560;52.982;6.662;2022-07-24T00:38:33;16.70;84.10
22787;DHT22;11560;52.982;6.662;2022-07-24T00:41:19;16.80;84.30
22787;DHT22;11560;52.982;6.662;2022-07-24T00:44:07;16.90;84.40
22787;DHT22;11560;52.982;6.662;2022-07-24T00:46:53;17.00;84.50
22787;DHT22;11560;52.982;6.662;2022-07-24T00:49:44;16.80;84.50
22787;DHT22;11560;52.982;6.662;2022-07-24T00:52:30;17.00;84.60
22787;DHT22;11560;52.982;6.662;2022-07-24T00:55:15;17.00;84.60
22787;DHT22;11560;52.982;6.662;2022-07-24T00:58:02;16.80;84.60
22787;DHT22;11560;52.982;6.662;2022-07-24T01:00:47;16.80;84.60
22787;DHT22;11560;52.982;6.662;2022-07-24T01:03:32;17.00;84.70
22787;DHT22;11560;52.982;6.662;2022-07-24T01:06:18;16.90;84.70
22787;DHT22;11560;52.982;6.662;2022-07-24T01:09:04;17.00;85.00
22787;DHT22;11560;52.982;6.662;2022-07-24T01:11:51;16.70;85.00
22787;DHT22;11560;52.982;6.662;2022-07-24T01:14:37;17.00;85.20
22787;DHT22;11560;52.982;6.662;2022-07-24T01:17:28;16.80;85.20
22787;DHT22;11560;52.982;6.662;2022-07-24T01:20:14;16.80;85.80
22787;DHT22;11560;52.982;6.662;2022-07-24T01:22:59;17.00;85.30
22787;DHT22;11560;52.982;6.662;2022-07-24T01:25:54;16.80;85.20
22787;DHT22;11560;52.982;6.662;2022-07-24T01:28:40;16.90;85.50
22787;DHT22;11560;52.982;6.662;2022-07-24T01:31:26;16.90;85.50
22787;DHT22;11560;52.982;6.662;2022-07-24T01:34:12;17.00;85.50
22787;DHT22;11560;52.982;6.662;2022-07-24T01:36:58;16.80;85.40
22787;DHT22;11560;52.982;6.662;2022-07-24T01:39:43;17.00;85.50
22787;DHT22;11560;52.982;6.662;2022-07-24T01:42:31;16.90;85.40
22787;DHT22;11560;52.982;6.662;2022-07-24T01:45:18;17.00;85.50
22787;DHT22;11560;52.982;6.662;2022-07-24T01:48:04;16.90;85.50
22787;DHT22;11560;52.982;6.662;2022-07-24T01:50:50;16.90;85.50
22787;DHT22;11560;52.982;6.662;2022-07-24T01:53:36;17.10;85.50
22787;DHT22;11560;52.982;6.662;2022-07-24T01:56:21;17.10;85.60
22787;DHT22;11560;52.982;6.662;2022-07-24T01:59:07;16.90;85.40
22787;DHT22;11560;52.982;6.662;2022-07-24T02:02:00;17.10;85.50
22787;DHT22;11560;52.982;6.662;2022-07-24T02:04:46;16.90;85.40
22787;DHT22;11560;52.982;6.662;2022-07-24T02:07:33;17.10;85.50
22787;DHT22;11560;52.982;6.662;2022-07-24T02:10:18;17.10;85.50
22787;DHT22;11560;52.982;6.662;2022-07-24T02:13:04;17.10;85.40
22787;DHT22;11560;52.982;6.662;2022-07-24T02:15:51;16.90;85.30
22787;DHT22;11560;52.982;6.662;2022-07-24T02:18:40;17.10;85.40
22787;DHT22;11560;52.982;6.662;2022-07-24T02:21:25;17.10;85.40
22787;DHT22;11560;52.982;6.662;2022-07-24T02:24:11;17.10;85.40
22787;DHT22;11560;52.982;6.662;2022-07-24T02:26:56;16.90;85.30
22787;DHT22;11560;52.982;6.662;2022-07-24T02:29:47;16.80;85.30
22787;DHT22;11560;52.982;6.662;2022-07-24T02:32:33;16.90;85.50
22787;DHT22;11560;52.982;6.662;2022-07-24T02:35:19;16.90;85.40
22787;DHT22;11560;52.982;6.662;2022-07-24T02:38:05;17.00;85.50
22787;DHT22;11560;52.982;6.662;2022-07-24T02:40:50;16.90;85.30
22787;DHT22;11560;52.982;6.662;2022-07-24T02:43:36;17.00;85.30
22787;DHT22;11560;52.982;6.662;2022-07-24T02:46:21;17.00;85.30
22787;DHT22;11560;52.982;6.662;2022-07-24T02:49:08;16.80;85.20
22787;DHT22;11560;52.982;6.662;2022-07-24T02:51:54;16.90;85.30
22787;DHT22;11560;52.982;6.662;2022-07-24T02:54:39;16.80;85.20
22787;DHT22;11560;52.982;6.662;2022-07-24T02:57:25;16.90;85.30
22787;DHT22;11560;52.982;6.662;2022-07-24T03:00:14;16.90;85.30
22787;DHT22;11560;52.982;6.662;2022-07-24T03:03:01;16.80;85.20
22787;DHT22;11560;52.982;6.662;2022-07-24T03:05:46;16.70;85.10
22787;DHT22;11560;52.982;6.662;2022-07-24T03:08:32;16.80;85.30
22787;DHT22;11560;52.982;6.662;2022-07-24T03:11:17;16.80;85.40
22787;DHT22;11560;52.982;6.662;2022-07-24T03:14:03;16.90;85.50
22787;DHT22;11560;52.982;6.662;2022-07-24T03:16:49;16.80;85.50
22787;DHT22;11560;52.982;6.662;2022-07-24T03:19:34;16.70;85.40
22787;DHT22;11560;52.982;6.662;2022-07-24T03:22:23;16.60;85.50
22787;DHT22;11560;52.982;6.662;2022-07-24T03:25:08;16.80;85.50
22787;DHT22;11560;52.982;6.662;2022-07-24T03:27:54;16.60;85.50
22787;DHT22;11560;52.982;6.662;2022-07-24T03:30:40;16.70;85.60
22787;DHT22;11560;52.982;6.662;2022-07-24T03:33:27;16.60;85.60
22787;DHT22;11560;52.982;6.662;2022-07-24T03:36:13;16.50;85.70
22787;DHT22;11560;52.982;6.662;2022-07-24T03:39:02;16.50;85.70
22787;DHT22;11560;52.982;6.662;2022-07-24T03:41:48;16.50;86.60
22787;DHT22;11560;52.982;6.662;2022-07-24T03:44:34;16.70;86.00
22787;DHT22;11560;52.982;6.662;2022-07-24T03:47:19;16.60;86.10
22787;DHT22;11560;52.982;6.662;2022-07-24T03:50:05;16.60;86.10
22787;DHT22;11560;52.982;6.662;2022-07-24T03:52:51;16.70;87.00
22787;DHT22;11560;52.982;6.662;2022-07-24T03:55:39;16.60;86.20
22787;DHT22;11560;52.982;6.662;2022-07-24T03:58:30;16.70;86.30
22787;DHT22;11560;52.982;6.662;2022-07-24T04:01:21;16.80;86.40
22787;DHT22;11560;52.982;6.662;2022-07-24T04:04:07;16.60;86.30
22787;DHT22;11560;52.982;6.662;2022-07-24T04:06:53;16.90;86.50
22787;DHT22;11560;52.982;6.662;2022-07-24T04:09:38;16.70;86.40
22787;DHT22;11560;52.982;6.662;2022-07-24T04:12:24;16.70;86.40
22787;DHT22;11560;52.982;6.662;2022-07-24T04:15:41;16.80;86.40
22787;DHT22;11560;52.982;6.662;2022-07-24T04:18:40;17.00;86.50
22787;DHT22;11560;52.982;6.662;2022-07-24T04:21:26;16.80;86.30
22787;DHT22;11560;52.982;6.662;2022-07-24T04:24:11;17.00;86.40
22787;DHT22;11560;52.982;6.662;2022-07-24T04:26:57;16.80;86.20
22787;DHT22;11560;52.982;6.662;2022-07-24T04:29:42;16.80;86.30
22787;DHT22;11560;52.982;6.662;2022-07-24T04:32:38;16.80;86.30
22787;DHT22;11560;52.982;6.662;2022-07-24T04:35:24;16.90;86.30
22787;DHT22;11560;52.982;6.662;2022-07-24T04:38:09;17.00;86.40
22787;DHT22;11560;52.982;6.662;2022-07-24T04:40:55;17.00;86.40
22787;DHT22;11560;52.982;6.662;2022-07-24T04:43:40;16.80;86.20
22787;DHT22;11560;52.982;6.662;2022-07-24T04:46:26;17.00;87.10
22787;DHT22;11560;52.982;6.662;2022-07-24T04:49:12;17.00;86.30
22787;DHT22;11560;52.982;6.662;2022-07-24T04:51:58;16.90;86.40
22787;DHT22;11560;52.982;6.662;2022-07-24T04:54:43;17.10;86.50
22787;DHT22;11560;52.982;6.662;2022-07-24T04:57:29;17.10;86.50
22787;DHT22;11560;52.982;6.662;2022-07-24T05:00:15;17.10;86.60
22787;DHT22;11560;52.982;6.662;2022-07-24T05:03:01;17.30;86.60
22787;DHT22;11560;52.982;6.662;2022-07-24T05:05:46;17.20;86.60
22787;DHT22;11560;52.982;6.662;2022-07-24T05:08:32;17.40;86.80
22787;DHT22;11560;52.982;6.662;2022-07-24T05:11:17;17.40;87.50
22787;DHT22;11560;52.982;6.662;2022-07-24T05:14:05;17.40;86.60
22787;DHT22;11560;52.982;6.662;2022-07-24T05:16:51;17.50;86.70
22787;DHT22;11560;52.982;6.662;2022-07-24T05:19:36;17.70;86.70
22787;DHT22;11560;52.982;6.662;2022-07-24T05:22:22;17.70;87.60
22787;DHT22;11560;52.982;6.662;2022-07-24T05:25:08;17.90;87.20
22787;DHT22;11560;52.982;6.662;2022-07-24T05:27:53;18.30;87.60
22787;DHT22;11560;52.982;6.662;2022-07-24T05:30:39;18.80;87.50
22787;DHT22;11560;52.982;6.662;2022-07-24T05:33:24;19.10;87.20
22787;DHT22;11560;52.982;6.662;2022-07-24T05:36:10;19.40;87.50
22787;DHT22;11560;52.982;6.662;2022-07-24T05:38:58;19.70;87.60
22787;DHT22;11560;52.982;6.662;2022-07-24T05:41:43;20.20;86.70
22787;DHT22;11560;52.982;6.662;2022-07-24T05:44:31;20.60;84.40
22787;DHT22;11560;52.982;6.662;2022-07-24T05:47:17;20.60;82.60
22787;DHT22;11560;52.982;6.662;2022-07-24T05:50:06;20.90;80.60
22787;DHT22;11560;52.982;6.662;2022-07-24T05:52:51;20.90;79.80
22787;DHT22;11560;52.982;6.662;2022-07-24T05:55:40;21.00;79.40
22787;DHT22;11560;52.982;6.662;2022-07-24T05:58:28;21.20;79.30
22787;DHT22;11560;52.982;6.662;2022-07-24T06:01:14;21.50;78.50
22787;DHT22;11560;52.982;6.662;2022-07-24T06:04:00;21.70;77.40
22787;DHT22;11560;52.982;6.662;2022-07-24T06:06:46;22.00;75.30
22787;DHT22;11560;52.982;6.662;2022-07-24T06:09:31;21.70;73.00
22787;DHT22;11560;52.982;6.662;2022-07-24T06:12:17;21.70;71.80
22787;DHT22;11560;52.982;6.662;2022-07-24T06:15:06;21.50;71.70
22787;DHT22;11560;52.982;6.662;2022-07-24T06:18:00;21.90;72.70
22787;DHT22;11560;52.982;6.662;2022-07-24T06:20:47;22.10;73.00
22787;DHT22;11560;52.982;6.662;2022-07-24T06:23:34;22.70;72.30
22787;DHT22;11560;52.982;6.662;2022-07-24T06:26:19;22.80;70.60
22787;DHT22;11560;52.982;6.662;2022-07-24T06:29:05;23.40;68.60
22787;DHT22;11560;52.982;6.662;2022-07-24T06:32:04;23.70;67.70
22787;DHT22;11560;52.982;6.662;2022-07-24T06:34:49;23.50;66.00
22787;DHT22;11560;52.982;6.662;2022-07-24T06:37:35;23.80;65.50
22787;DHT22;11560;52.982;6.662;2022-07-24T06:40:20;23.80;65.00
22787;DHT22;11560;52.982;6.662;2022-07-24T06:43:08;23.70;64.80
22787;DHT22;11560;52.982;6.662;2022-07-24T06:45:54;23.60;64.40
22787;DHT22;11560;52.982;6.662;2022-07-24T06:48:39;23.60;65.10
22787;DHT22;11560;52.982;6.662;2022-07-24T06:51:25;23.70;64.90
22787;DHT22;11560;52.982;6.662;2022-07-24T06:54:11;23.70;64.90
22787;DHT22;11560;52.982;6.662;2022-07-24T06:56:56;23.70;65.00
22787;DHT22;11560;52.982;6.662;2022-07-24T06:59:42;23.50;64.80
22787;DHT22;11560;52.982;6.662;2022-07-24T07:02:27;23.40;64.70
22787;DHT22;11560;52.982;6.662;2022-07-24T07:05:15;23.50;64.90
22787;DHT22;11560;52.982;6.662;2022-07-24T07:08:01;23.30;64.70
22787;DHT22;11560;52.982;6.662;2022-07-24T07:10:46;23.40;65.30
22787;DHT22;11560;52.982;6.662;2022-07-24T07:13:32;23.30;65.50
22787;DHT22;11560;52.982;6.662;2022-07-24T07:16:17;23.40;65.20
22787;DHT22;11560;52.982;6.662;2022-07-24T07:19:03;23.50;65.00
22787;DHT22;11560;52.982;6.662;2022-07-24T07:21:49;23.60;65.20
22787;DHT22;11560;52.982;6.662;2022-07-24T07:24:34;23.60;65.40
22787;DHT22;11560;52.982;6.662;2022-07-24T07:27:29;23.50;65.80
22787;DHT22;11560;52.982;6.662;2022-07-24T07:30:14;23.40;66.10
22787;DHT22;11560;52.982;6.662;2022-07-24T07:33:00;23.80;66.40
22787;DHT22;11560;52.982;6.662;2022-07-24T07:35:46;23.90;66.40
22787;DHT22;11560;52.982;6.662;2022-07-24T07:38:32;23.80;65.80
22787;DHT22;11560;52.982;6.662;2022-07-24T07:41:18;24.10;65.90
22787;DHT22;11560;52.982;6.662;2022-07-24T07:44:04;24.00;65.50
22787;DHT22;11560;52.982;6.662;2022-07-24T07:46:52;24.30;65.20
22787;DHT22;11560;52.982;6.662;2022-07-24T07:49:38;24.30;64.60
22787;DHT22;11560;52.982;6.662;2022-07-24T07:52:24;24.60;63.50
22787;DHT22;11560;52.982;6.662;2022-07-24T07:55:09;24.30;62.80
22787;DHT22;11560;52.982;6.662;2022-07-24T07:57:55;24.70;63.00
22787;DHT22;11560;52.982;6.662;2022-07-24T08:00:53;24.50;63.10
22787;DHT22;11560;52.982;6.662;2022-07-24T08:03:39;24.60;63.10
22787;DHT22;11560;52.982;6.662;2022-07-24T08:06:24;24.80;63.20
22787;DHT22;11560;52.982;6.662;2022-07-24T08:09:10;24.70;62.50
22787;DHT22;11560;52.982;6.662;2022-07-24T08:11:55;24.50;62.00
22787;DHT22;11560;52.982;6.662;2022-07-24T08:14:41;24.70;61.60
22787;DHT22;11560;52.982;6.662;2022-07-24T08:17:27;24.60;61.30
22787;DHT22;11560;52.982;6.662;2022-07-24T08:20:15;24.70;60.30
22787;DHT22;11560;52.982;6.662;2022-07-24T08:23:01;24.90;60.20
22787;DHT22;11560;52.982;6.662;2022-07-24T08:25:46;24.70;59.50
22787;DHT22;11560;52.982;6.662;2022-07-24T08:28:32;25.00;59.30
22787;DHT22;11560;52.982;6.662;2022-07-24T08:31:18;25.10;58.90
22787;DHT22;11560;52.982;6.662;2022-07-24T08:34:03;25.20;58.60
22787;DHT22;11560;52.982;6.662;2022-07-24T08:36:49;25.20;57.90
22787;DHT22;11560;52.982;6.662;2022-07-24T08:39:35;25.40;57.40
22787;DHT22;11560;52.982;6.662;2022-07-24T08:42:25;25.60;56.90
22787;DHT22;11560;52.982;6.662;2022-07-24T08:45:10;25.90;56.70
22787;DHT22;11560;52.982;6.662;2022-07-24T08:47:56;26.00;56.40
22787;DHT22;11560;52.982;6.662;2022-07-24T08:50:42;25.90;56.10
22787;DHT22;11560;52.982;6.662;2022-07-24T08:53:28;26.30;55.90
22787;DHT22;11560;52.982;6.662;2022-07-24T08:56:14;26.30;55.30
22787;DHT22;11560;52.982;6.662;2022-07-24T08:59:00;26.00;54.80
22787;DHT22;11560;52.982;6.662;2022-07-24T09:01:49;26.00;54.60
22787;DHT22;11560;52.982;6.662;2022-07-24T09:04:41;26.00;54.90
22787;DHT22;11560;52.982;6.662;2022-07-24T09:07:30;26.10;55.10
22787;DHT22;11560;52.982;6.662;2022-07-24T09:10:16;26.10;55.20
22787;DHT22;11560;52.982;6.662;2022-07-24T09:13:14;26.10;55.30
22787;DHT22;11560;52.982;6.662;2022-07-24T09:16:00;26.30;55.20
22787;DHT22;11560;52.982;6.662;2022-07-24T09:18:45;26.60;55.20
22787;DHT22;11560;52.982;6.662;2022-07-24T09:21:33;26.90;54.10
22787;DHT22;11560;52.982;6.662;2022-07-24T09:24:25;26.70;53.40
22787;DHT22;11560;52.982;6.662;2022-07-24T09:27:14;26.70;53.30
22787;DHT22;11560;52.982;6.662;2022-07-24T09:30:00;27.10;53.50
22787;DHT22;11560;52.982;6.662;2022-07-24T09:32:52;27.50;54.00
22787;DHT22;11560;52.982;6.662;2022-07-24T09:35:40;27.80;52.80
22787;DHT22;11560;52.982;6.662;2022-07-24T09:38:26;27.70;51.80
22787;DHT22;11560;52.982;6.662;2022-07-24T09:41:12;27.80;51.70
22787;DHT22;11560;52.982;6.662;2022-07-24T09:44:02;27.90;51.00
22787;DHT22;11560;52.982;6.662;2022-07-24T09:47:15;28.00;50.60
22787;DHT22;11560;52.982;6.662;2022-07-24T09:50:15;28.20;50.60
22787;DHT22;11560;52.982;6.662;2022-07-24T09:53:03;28.30;50.00
22787;DHT22;11560;52.982;6.662;2022-07-24T09:56:02;28.10;49.50
22787;DHT22;11560;52.982;6.662;2022-07-24T09:58:50;28.60;49.50
22787;DHT22;11560;52.982;6.662;2022-07-24T10:01:40;28.20;48.30
22787;DHT22;11560;52.982;6.662;2022-07-24T10:04:32;28.60;49.50
22787;DHT22;11560;52.982;6.662;2022-07-24T10:07:21;28.70;48.60
22787;DHT22;11560;52.982;6.662;2022-07-24T10:10:08;28.90;48.50
22787;DHT22;11560;52.982;6.662;2022-07-24T10:12:58;28.90;47.80
22787;DHT22;11560;52.982;6.662;2022-07-24T10:19:02;29.20;48.00
22787;DHT22;11560;52.982;6.662;2022-07-24T10:21:54;29.20;47.80
22787;DHT22;11560;52.982;6.662;2022-07-24T10:25:04;29.70;47.70
22787;DHT22;11560;52.982;6.662;2022-07-24T10:27:52;29.90;47.80
22787;DHT22;11560;52.982;6.662;2022-07-24T10:30:40;30.00;47.10
22787;DHT22;11560;52.982;6.662;2022-07-24T10:33:35;30.20;46.90
22787;DHT22;11560;52.982;6.662;2022-07-24T10:36:29;30.40;46.40
22787;DHT22;11560;52.982;6.662;2022-07-24T10:39:25;30.50;45.30
22787;DHT22;11560;52.982;6.662;2022-07-24T10:42:18;30.70;44.90
22787;DHT22;11560;52.982;6.662;2022-07-24T10:45:18;30.90;44.50
22787;DHT22;11560;52.982;6.662;2022-07-24T10:51:11;31.20;43.70
22787;DHT22;11560;52.982;6.662;2022-07-24T10:53:56;31.10;43.20
22787;DHT22;11560;52.982;6.662;2022-07-24T10:56:42;31.10;42.80
22787;DHT22;11560;52.982;6.662;2022-07-24T10:59:39;31.30;42.90
22787;DHT22;11560;52.982;6.662;2022-07-24T11:02:29;31.60;42.20
22787;DHT22;11560;52.982;6.662;2022-07-24T11:06:13;31.70;42.10
22787;DHT22;11560;52.982;6.662;2022-07-24T11:08:48;31.30;41.50
22787;DHT22;11560;52.982;6.662;2022-07-24T11:11:40;30.90;41.60
22787;DHT22;11560;52.982;6.662;2022-07-24T11:17:41;30.70;42.70
22787;DHT22;11560;52.982;6.662;2022-07-24T11:20:32;30.60;43.00
22787;DHT22;11560;52.982;6.662;2022-07-24T11:23:20;30.80;43.30
22787;DHT22;11560;52.982;6.662;2022-07-24T11:29:27;31.30;42.60
22787;DHT22;11560;52.982;6.662;2022-07-24T11:32:14;31.20;41.90
22787;DHT22;11560;52.982;6.662;2022-07-24T11:35:03;31.40;42.10
22787;DHT22;11560;52.982;6.662;2022-07-24T11:37:50;31.70;42.00
22787;DHT22;11560;52.982;6.662;2022-07-24T11:40:36;31.70;41.60
22787;DHT22;11560;52.982;6.662;2022-07-24T11:43:22;32.10;41.50
22787;DHT22;11560;52.982;6.662;2022-07-24T11:46:07;32.30;41.50
22787;DHT22;11560;52.982;6.662;2022-07-24T11:49:03;32.20;40.50
22787;DHT22;11560;52.982;6.662;2022-07-24T11:51:51;32.30;40.30
22787;DHT22;11560;52.982;6.662;2022-07-24T11:54:40;32.20;40.40
22787;DHT22;11560;52.982;6.662;2022-07-24T11:57:35;32.20;40.10
22787;DHT22;11560;52.982;6.662;2022-07-24T12:00:41;32.30;40.10
22787;DHT22;11560;52.982;6.662;2022-07-24T12:03:27;32.30;40.80
22787;DHT22;11560;52.982;6.662;2022-07-24T12:06:13;32.20;40.40
22787;DHT22;11560;52.982;6.662;2022-07-24T12:09:07;32.30;40.60
22787;DHT22;11560;52.982;6.662;2022-07-24T12:11:53;32.40;40.10
22787;DHT22;11560;52.982;6.662;2022-07-24T12:14:39;32.30;40.10
22787;DHT22;11560;52.982;6.662;2022-07-24T12:17:24;32.40;40.30
22787;DHT22;11560;52.982;6.662;2022-07-24T12:20:10;32.30;39.90
22787;DHT22;11560;52.982;6.662;2022-07-24T12:22:56;32.40;39.90
22787;DHT22;11560;52.982;6.662;2022-07-24T12:25:44;32.60;40.10
22787;DHT22;11560;52.982;6.662;2022-07-24T12:28:29;32.50;39.50
22787;DHT22;11560;52.982;6.662;2022-07-24T12:31:15;32.70;39.20
22787;DHT22;11560;52.982;6.662;2022-07-24T12:34:01;32.70;38.80
22787;DHT22;11560;52.982;6.662;2022-07-24T12:36:47;32.60;38.60
22787;DHT22;11560;52.982;6.662;2022-07-24T12:39:33;32.60;38.80
22787;DHT22;11560;52.982;6.662;2022-07-24T12:42:30;32.60;38.60
22787;DHT22;11560;52.982;6.662;2022-07-24T12:45:18;32.60;38.40
22787;DHT22;11560;52.982;6.662;2022-07-24T12:48:19;32.60;38.60
22787;DHT22;11560;52.982;6.662;2022-07-24T12:51:10;32.50;38.90
22787;DHT22;11560;52.982;6.662;2022-07-24T12:53:57;32.20;38.60
22787;DHT22;11560;52.982;6.662;2022-07-24T12:56:42;32.10;39.40
22787;DHT22;11560;52.982;6.662;2022-07-24T12:59:39;32.20;39.90
22787;DHT22;11560;52.982;6.662;2022-07-24T13:02:25;32.50;40.10
22787;DHT22;11560;52.982;6.662;2022-07-24T13:05:36;32.80;40.70
22787;DHT22;11560;52.982;6.662;2022-07-24T13:08:21;32.70;38.90
22787;DHT22;11560;52.982;6.662;2022-07-24T13:11:07;32.60;38.40
22787;DHT22;11560;52.982;6.662;2022-07-24T13:13:52;32.60;38.50
22787;DHT22;11560;52.982;6.662;2022-07-24T13:16:39;32.60;38.30
22787;DHT22;11560;52.982;6.662;2022-07-24T13:19:25;32.60;39.20
22787;DHT22;11560;52.982;6.662;2022-07-24T13:22:11;32.90;39.20
22787;DHT22;11560;52.982;6.662;2022-07-24T13:24:56;32.90;38.40
22787;DHT22;11560;52.982;6.662;2022-07-24T13:27:42;32.70;38.40
22787;DHT22;11560;52.982;6.662;2022-07-24T13:30:48;32.70;38.70
22787;DHT22;11560;52.982;6.662;2022-07-24T13:33:33;32.80;38.60
22787;DHT22;11560;52.982;6.662;2022-07-24T13:36:19;32.90;38.50
22787;DHT22;11560;52.982;6.662;2022-07-24T13:39:08;32.80;38.30
22787;DHT22;11560;52.982;6.662;2022-07-24T13:41:54;32.90;38.40
22787;DHT22;11560;52.982;6.662;2022-07-24T13:44:39;32.80;38.30
22787;DHT22;11560;52.982;6.662;2022-07-24T13:47:25;32.80;38.70
22787;DHT22;11560;52.982;6.662;2022-07-24T13:50:14;32.90;38.40
22787;DHT22;11560;52.982;6.662;2022-07-24T13:52:59;32.80;38.50
22787;DHT22;11560;52.982;6.662;2022-07-24T13:55:45;33.00;38.60
22787;DHT22;11560;52.982;6.662;2022-07-24T13:58:30;32.90;38.40
22787;DHT22;11560;52.982;6.662;2022-07-24T14:01:16;32.70;38.60
22787;DHT22;11560;52.982;6.662;2022-07-24T14:04:03;32.80;39.20
22787;DHT22;11560;52.982;6.662;2022-07-24T14:07:12;32.80;39.10
22787;DHT22;11560;52.982;6.662;2022-07-24T14:09:57;32.80;38.50
22787;DHT22;11560;52.982;6.662;2022-07-24T14:12:44;32.70;38.30
22787;DHT22;11560;52.982;6.662;2022-07-24T14:15:30;32.70;38.50
22787;DHT22;11560;52.982;6.662;2022-07-24T14:18:15;32.80;38.50
22787;DHT22;11560;52.982;6.662;2022-07-24T14:21:01;32.90;38.50
22787;DHT22;11560;52.982;6.662;2022-07-24T14:23:47;32.90;38.80
22787;DHT22;11560;52.982;6.662;2022-07-24T14:26:32;32.90;39.00
22787;DHT22;11560;52.982;6.662;2022-07-24T14:29:18;33.00;39.20
22787;DHT22;11560;52.982;6.662;2022-07-24T14:32:04;33.00;38.80
22787;DHT22;11560;52.982;6.662;2022-07-24T14:34:51;32.90;38.50
22787;DHT22;11560;52.982;6.662;2022-07-24T14:37:37;32.80;38.40
22787;DHT22;11560;52.982;6.662;2022-07-24T14:40:24;32.80;38.70
22787;DHT22;11560;52.982;6.662;2022-07-24T14:43:09;32.80;38.50
22787;DHT22;11560;52.982;6.662;2022-07-24T14:45:55;32.90;38.50
22787;DHT22;11560;52.982;6.662;2022-07-24T14:48:41;32.70;38.40
22787;DHT22;11560;52.982;6.662;2022-07-24T14:51:27;32.70;38.40
22787;DHT22;11560;52.982;6.662;2022-07-24T14:54:13;32.70;38.60
22787;DHT22;11560;52.982;6.662;2022-07-24T14:56:58;32.80;38.80
22787;DHT22;11560;52.982;6.662;2022-07-24T14:59:45;32.70;39.00
22787;DHT22;11560;52.982;6.662;2022-07-24T15:02:31;32.70;39.00
22787;DHT22;11560;52.982;6.662;2022-07-24T15:05:20;32.70;39.10
22787;DHT22;11560;52.982;6.662;2022-07-24T15:08:05;32.70;39.30
22787;DHT22;11560;52.982;6.662;2022-07-24T15:10:52;32.60;39.50
22787;DHT22;11560;52.982;6.662;2022-07-24T15:13:38;32.60;39.30
22787;DHT22;11560;52.982;6.662;2022-07-24T15:16:25;32.60;39.10
22787;DHT22;11560;52.982;6.662;2022-07-24T15:19:11;32.60;39.20
22787;DHT22;11560;52.982;6.662;2022-07-24T15:21:56;32.60;39.50
22787;DHT22;11560;52.982;6.662;2022-07-24T15:24:42;32.50;40.00
22787;DHT22;11560;52.982;6.662;2022-07-24T15:27:27;32.50;39.40
22787;DHT22;11560;52.982;6.662;2022-07-24T15:30:18;32.40;39.50
22787;DHT22;11560;52.982;6.662;2022-07-24T15:33:11;32.50;40.00
22787;DHT22;11560;52.982;6.662;2022-07-24T15:35:58;32.40;40.10
22787;DHT22;11560;52.982;6.662;2022-07-24T15:38:44;32.40;39.70
22787;DHT22;11560;52.982;6.662;2022-07-24T15:41:30;32.40;39.90
22787;DHT22;11560;52.982;6.662;2022-07-24T15:44:15;32.40;40.00
22787;DHT22;11560;52.982;6.662;2022-07-24T15:47:04;32.40;39.90
22787;DHT22;11560;52.982;6.662;2022-07-24T15:49:50;32.50;39.70
22787;DHT22;11560;52.982;6.662;2022-07-24T15:52:35;32.50;39.80
22787;DHT22;11560;52.982;6.662;2022-07-24T15:55:21;32.40;40.10
22787;DHT22;11560;52.982;6.662;2022-07-24T15:58:07;32.60;40.10
22787;DHT22;11560;52.982;6.662;2022-07-24T16:00:52;32.40;39.90
22787;DHT22;11560;52.982;6.662;2022-07-24T16:03:41;32.50;40.00
22787;DHT22;11560;52.982;6.662;2022-07-24T16:06:26;32.60;40.30
22787;DHT22;11560;52.982;6.662;2022-07-24T16:09:12;32.50;40.30
22787;DHT22;11560;52.982;6.662;2022-07-24T16:11:58;32.50;40.50
22787;DHT22;11560;52.982;6.662;2022-07-24T16:14:46;32.60;40.90
22787;DHT22;11560;52.982;6.662;2022-07-24T16:17:34;32.30;41.00
22787;DHT22;11560;52.982;6.662;2022-07-24T16:20:22;32.50;41.10
22787;DHT22;11560;52.982;6.662;2022-07-24T16:23:07;32.50;40.90
22787;DHT22;11560;52.982;6.662;2022-07-24T16:25:53;32.40;40.80
22787;DHT22;11560;52.982;6.662;2022-07-24T16:28:38;32.20;40.90
22787;DHT22;11560;52.982;6.662;2022-07-24T16:31:24;32.10;41.20
22787;DHT22;11560;52.982;6.662;2022-07-24T16:34:13;32.20;41.60
22787;DHT22;11560;52.982;6.662;2022-07-24T16:37:05;32.10;41.60
22787;DHT22;11560;52.982;6.662;2022-07-24T16:39:51;32.00;41.70
22787;DHT22;11560;52.982;6.662;2022-07-24T16:42:36;31.90;41.80
22787;DHT22;11560;52.982;6.662;2022-07-24T16:45:24;31.70;42.30
22787;DHT22;11560;52.982;6.662;2022-07-24T16:48:25;31.70;42.60
22787;DHT22;11560;52.982;6.662;2022-07-24T16:51:11;31.70;42.80
22787;DHT22;11560;52.982;6.662;2022-07-24T16:54:16;31.40;43.00
22787;DHT22;11560;52.982;6.662;2022-07-24T16:57:02;31.30;43.10
22787;DHT22;11560;52.982;6.662;2022-07-24T16:59:47;31.30;43.30
22787;DHT22;11560;52.982;6.662;2022-07-24T17:02:33;31.20;43.40
22787;DHT22;11560;52.982;6.662;2022-07-24T17:05:19;31.30;43.70
22787;DHT22;11560;52.982;6.662;2022-07-24T17:08:05;30.90;43.90
22787;DHT22;11560;52.982;6.662;2022-07-24T17:10:51;30.80;44.90
22787;DHT22;11560;52.982;6.662;2022-07-24T17:13:37;30.70;44.70
22787;DHT22;11560;52.982;6.662;2022-07-24T17:16:24;30.60;44.80
22787;DHT22;11560;52.982;6.662;2022-07-24T17:19:11;30.90;45.10
22787;DHT22;11560;52.982;6.662;2022-07-24T17:22:23;30.60;45.10
22787;DHT22;11560;52.982;6.662;2022-07-24T17:25:10;30.70;45.40
22787;DHT22;11560;52.982;6.662;2022-07-24T17:28:13;30.80;45.60
22787;DHT22;11560;52.982;6.662;2022-07-24T17:30:59;30.70;45.80
22787;DHT22;11560;52.982;6.662;2022-07-24T17:33:45;30.80;46.00
22787;DHT22;11560;52.982;6.662;2022-07-24T17:36:30;30.60;46.00
22787;DHT22;11560;52.982;6.662;2022-07-24T17:39:16;30.60;46.00
22787;DHT22;11560;52.982;6.662;2022-07-24T17:42:02;30.50;46.00
22787;DHT22;11560;52.982;6.662;2022-07-24T17:44:47;30.70;46.30
22787;DHT22;11560;52.982;6.662;2022-07-24T17:47:33;30.40;46.20
22787;DHT22;11560;52.982;6.662;2022-07-24T17:50:22;30.50;46.40
22787;DHT22;11560;52.982;6.662;2022-07-24T17:53:08;30.60;46.60